createdAt,value
2018-09-19T00:02:25.004Z,4.70
2018-09-19T00:04:53.364Z,5.03
2018-09-19T00:07:22.504Z,5.10
2018-09-19T00:09:50.700Z,4.80
2018-09-19T00:12:18.923Z,4.67
2018-09-19T00:14:47.180Z,5.20
2018-09-19T00:17:15.392Z,4.80
2018-09-19T00:19:43.640Z,4.80
2018-09-19T00:22:11.901Z,4.90
2018-09-19T00:24:40.120Z,5.43
2018-09-19T00:27:08.383Z,5.73
2018-09-19T00:29:37.529Z,5.47
2018-09-19T00:32:05.793Z,5.13
2018-09-19T00:34:33.996Z,4.77
2018-09-19T00:37:02.341Z,5.10
2018-09-19T00:39:30.581Z,4.97
2018-09-19T00:41:58.789Z,4.83
2018-09-19T00:44:26.992Z,5.23
2018-09-19T00:46:55.212Z,5.03
2018-09-19T00:49:23.423Z,5.13
2018-09-19T00:51:51.680Z,5.40
2018-09-19T00:54:19.887Z,5.20
2018-09-19T00:56:48.137Z,4.80
2018-09-19T00:59:16.392Z,5.07
2018-09-19T01:02:47.807Z,4.93
2018-09-19T01:05:16.281Z,4.97
2018-09-19T01:07:44.512Z,4.73
2018-09-19T01:10:12.768Z,4.83
2018-09-19T01:12:41.073Z,5.23
2018-09-19T01:15:09.335Z,4.73
2018-09-19T01:17:38.103Z,5.00
2018-09-19T01:20:06.471Z,4.97
2018-09-19T01:22:34.880Z,4.67
2018-09-19T01:25:03.096Z,4.77
2018-09-19T01:27:31.323Z,4.90
2018-09-19T01:29:59.553Z,4.40
2018-09-19T01:32:27.804Z,4.73
2018-09-19T01:34:56.020Z,5.07
2018-09-19T01:37:24.432Z,5.03
2018-09-19T01:39:52.733Z,4.90
2018-09-19T01:42:21.122Z,4.80
2018-09-19T01:44:49.331Z,5.37
2018-09-19T01:47:17.568Z,5.27
2018-09-19T01:49:45.800Z,5.50
2018-09-19T01:52:14.103Z,5.37
2018-09-19T01:54:42.554Z,4.70
2018-09-19T01:57:10.756Z,5.67
2018-09-19T01:59:38.992Z,5.10
2018-09-19T02:02:07.243Z,5.10
2018-09-19T02:04:35.468Z,4.77
2018-09-19T02:07:03.681Z,4.80
2018-09-19T02:09:31.942Z,4.60
2018-09-19T02:12:00.192Z,5.50
2018-09-19T02:14:28.420Z,5.10
2018-09-19T02:16:56.657Z,5.27
2018-09-19T02:19:24.848Z,5.77
2018-09-19T02:21:53.138Z,5.97
2018-09-19T02:24:21.271Z,5.80
2018-09-19T02:26:49.500Z,4.67
2018-09-19T02:29:17.707Z,5.57
2018-09-19T02:31:45.967Z,5.43
2018-09-19T02:34:14.209Z,5.43
2018-09-19T02:36:42.439Z,5.50
2018-09-19T02:39:11.113Z,5.70
2018-09-19T02:41:39.349Z,5.97
2018-09-19T02:44:07.739Z,6.00
2018-09-19T02:46:35.969Z,6.40
2018-09-19T02:49:04.165Z,6.00
2018-09-19T02:51:32.424Z,5.90
2018-09-19T02:54:00.662Z,6.17
2018-09-19T02:56:28.873Z,6.17
2018-09-19T02:58:57.104Z,5.30
2018-09-19T03:01:25.295Z,5.97
2018-09-19T03:03:53.528Z,5.53
2018-09-19T03:06:21.790Z,5.67
2018-09-19T03:08:50.071Z,5.77
2018-09-19T03:11:18.287Z,6.00
2018-09-19T03:13:46.504Z,6.10
2018-09-19T03:16:14.738Z,6.17
2018-09-19T03:18:42.987Z,6.60
2018-09-19T03:21:11.205Z,5.97
2018-09-19T03:23:39.436Z,5.70
2018-09-19T03:26:07.679Z,5.90
2018-09-19T03:28:35.903Z,6.37
2018-09-19T03:31:04.163Z,6.10
2018-09-19T03:33:32.376Z,5.97
2018-09-19T03:36:00.610Z,6.67
2018-09-19T03:38:28.853Z,6.20
2018-09-19T03:40:57.119Z,6.10
2018-09-19T03:43:25.395Z,6.00
2018-09-19T03:45:53.696Z,6.80
2018-09-19T03:48:22.103Z,6.13
2018-09-19T03:50:50.307Z,6.80
2018-09-19T03:53:18.504Z,6.77
2018-09-19T03:55:46.843Z,7.03
2018-09-19T03:58:15.166Z,5.97
2018-09-19T04:00:43.360Z,6.50
2018-09-19T04:03:11.821Z,6.50
2018-09-19T04:05:40.040Z,6.97
2018-09-19T04:08:08.684Z,6.77
2018-09-19T04:10:36.886Z,7.10
2018-09-19T04:13:05.787Z,6.80
2018-09-19T04:15:34.016Z,7.23
2018-09-19T04:18:02.239Z,6.90
2018-09-19T04:20:30.447Z,7.07
2018-09-19T04:23:00.713Z,6.70
2018-09-19T04:25:28.957Z,6.80
2018-09-19T04:27:57.150Z,7.23
2018-09-19T04:30:25.373Z,7.20
2018-09-19T04:32:53.585Z,7.03
2018-09-19T04:35:21.863Z,6.67
2018-09-19T04:37:50.102Z,7.00
2018-09-19T04:40:18.397Z,6.83
2018-09-19T04:42:46.691Z,7.30
2018-09-19T04:45:15.048Z,6.70
2018-09-19T04:47:43.303Z,7.03
2018-09-19T04:50:11.648Z,6.80
2018-09-19T04:52:39.888Z,7.27
2018-09-19T04:55:08.083Z,7.93
2018-09-19T04:57:36.325Z,7.13
2018-09-19T05:00:04.619Z,6.70
2018-09-19T05:02:33.422Z,7.27
2018-09-19T05:05:01.641Z,7.23
2018-09-19T05:07:29.881Z,6.53
2018-09-19T05:09:58.099Z,6.27
2018-09-19T05:12:26.344Z,6.67
2018-09-19T05:14:54.625Z,7.63
2018-09-19T05:17:22.827Z,7.40
2018-09-19T05:19:51.068Z,7.00
2018-09-19T05:22:19.294Z,7.23
2018-09-19T05:24:47.528Z,6.87
2018-09-19T05:27:16.092Z,7.00
2018-09-19T05:29:44.768Z,6.70
2018-09-19T05:32:13.150Z,7.33
2018-09-19T05:34:41.940Z,6.87
2018-09-19T05:37:10.230Z,6.77
2018-09-19T05:39:38.497Z,7.03
2018-09-19T05:42:06.748Z,7.57
2018-09-19T05:44:35.043Z,6.27
2018-09-19T05:47:03.324Z,6.77
2018-09-19T05:49:31.569Z,6.90
2018-09-19T05:51:59.807Z,6.00
2018-09-19T05:54:28.133Z,6.43
2018-09-19T05:56:57.258Z,6.60
2018-09-19T05:59:25.515Z,6.63
2018-09-19T06:01:53.723Z,5.83
2018-09-19T06:04:21.964Z,6.70
2018-09-19T06:06:50.681Z,6.70
2018-09-19T06:09:18.917Z,6.10
2018-09-19T06:11:47.188Z,6.93
2018-09-19T06:14:15.412Z,6.20
2018-09-19T06:16:43.707Z,6.70
2018-09-19T06:19:11.963Z,6.33
2018-09-19T06:21:40.644Z,7.20
2018-09-19T06:24:08.880Z,6.90
2018-09-19T06:26:37.097Z,5.30
2018-09-19T06:29:05.583Z,5.90
2018-09-19T06:31:33.813Z,5.80
2018-09-19T06:34:02.063Z,5.30
2018-09-19T06:36:30.279Z,5.20
2018-09-19T06:38:58.498Z,5.90
2018-09-19T06:41:26.712Z,5.03
2018-09-19T06:43:54.925Z,5.63
2018-09-19T06:46:23.157Z,4.97
2018-09-19T06:48:51.342Z,4.60
2018-09-19T06:51:19.682Z,4.80
2018-09-19T06:53:47.877Z,4.87
2018-09-19T06:56:16.149Z,4.70
2018-09-19T06:58:44.364Z,5.13
2018-09-19T07:01:12.603Z,4.17
2018-09-19T07:03:40.830Z,4.40
2018-09-19T07:06:09.136Z,4.70
2018-09-19T07:08:37.377Z,4.70
2018-09-19T07:11:05.613Z,5.07
2018-09-19T07:13:33.844Z,5.37
2018-09-19T07:16:02.057Z,4.37
2018-09-19T07:18:30.400Z,4.17
2018-09-19T07:20:58.609Z,4.33
2018-09-19T07:23:26.840Z,4.30
2018-09-19T07:25:55.100Z,4.37
2018-09-19T07:28:23.892Z,3.73
2018-09-19T07:30:52.168Z,3.87
2018-09-19T07:33:21.440Z,4.07
2018-09-19T07:35:49.672Z,3.87
2018-09-19T07:38:17.916Z,4.10
2018-09-19T07:40:46.151Z,3.37
2018-09-19T07:43:14.367Z,3.93
2018-09-19T07:45:43.665Z,3.97
2018-09-19T07:48:11.937Z,3.30
2018-09-19T07:50:40.148Z,3.47
2018-09-19T07:53:08.393Z,3.90
2018-09-19T07:55:36.602Z,3.83
2018-09-19T07:58:04.837Z,3.23
2018-09-19T08:00:33.120Z,3.37
2018-09-19T08:03:01.271Z,3.57
2018-09-19T08:05:29.532Z,3.23
2018-09-19T08:07:57.777Z,3.53
2018-09-19T08:10:25.980Z,3.40
2018-09-19T08:12:54.211Z,3.37
2018-09-19T08:15:22.453Z,3.43
2018-09-19T08:17:50.680Z,3.77
2018-09-19T08:20:18.900Z,3.10
2018-09-19T08:22:47.206Z,2.83
2018-09-19T08:25:15.368Z,2.77
2018-09-19T08:27:43.628Z,3.20
2018-09-19T08:30:11.899Z,2.60
2018-09-19T08:32:40.121Z,3.10
2018-09-19T08:35:08.341Z,3.03
2018-09-19T08:37:36.568Z,3.93
2018-09-19T08:40:04.808Z,3.17
2018-09-19T08:42:33.018Z,3.10
2018-09-19T08:45:01.263Z,2.90
2018-09-19T08:47:29.524Z,3.10
2018-09-19T08:49:57.773Z,2.77
2018-09-19T08:52:26.045Z,3.10
2018-09-19T08:54:54.274Z,3.30
2018-09-19T08:57:22.506Z,3.60
2018-09-19T08:59:50.725Z,3.33
2018-09-19T09:02:19.035Z,3.13
2018-09-19T09:04:47.268Z,3.27
2018-09-19T09:07:15.483Z,3.53
2018-09-19T09:09:43.714Z,3.50
2018-09-19T09:12:11.996Z,3.33
2018-09-19T09:14:40.184Z,2.77
2018-09-19T09:17:08.426Z,3.00
2018-09-19T09:19:36.612Z,2.80
2018-09-19T09:22:04.843Z,3.17
2018-09-19T09:24:33.052Z,3.40
2018-09-19T09:27:01.438Z,3.10
2018-09-19T09:29:29.544Z,3.20
2018-09-19T09:31:57.765Z,2.67
2018-09-19T09:34:26.063Z,2.57
2018-09-19T09:36:54.402Z,2.90
2018-09-19T09:39:22.522Z,2.57
2018-09-19T09:41:50.845Z,3.00
2018-09-19T09:44:19.470Z,3.20
2018-09-19T09:46:47.731Z,2.80
2018-09-19T09:49:15.932Z,2.93
2018-09-19T09:51:44.168Z,3.03
2018-09-19T09:54:12.483Z,3.00
2018-09-19T09:56:41.170Z,2.70
2018-09-19T09:59:09.373Z,2.90
2018-09-19T10:01:37.628Z,2.90
2018-09-19T10:04:06.288Z,2.80
2018-09-19T10:06:34.644Z,2.57
2018-09-19T10:09:02.900Z,3.20
2018-09-19T10:11:31.111Z,2.70
2018-09-19T10:13:59.368Z,2.90
2018-09-19T10:16:27.636Z,2.67
2018-09-19T10:18:55.862Z,2.40
2018-09-19T10:21:24.055Z,2.80
2018-09-19T10:23:52.297Z,2.60
2018-09-19T10:26:20.564Z,2.90
2018-09-19T10:28:48.913Z,2.63
2018-09-19T10:31:17.557Z,2.70
2018-09-19T10:33:45.878Z,2.63
2018-09-19T10:36:14.181Z,2.70
2018-09-19T10:38:42.672Z,2.30
2018-09-19T10:41:10.920Z,2.60
2018-09-19T10:43:39.146Z,2.90
2018-09-19T10:46:07.353Z,2.83
2018-09-19T10:48:35.665Z,2.60
2018-09-19T10:51:03.877Z,2.67
2018-09-19T10:53:32.813Z,2.70
2018-09-19T10:56:01.013Z,2.70
2018-09-19T10:58:29.246Z,2.17
2018-09-19T11:00:57.436Z,3.17
2018-09-19T11:03:25.663Z,2.70
2018-09-19T11:05:53.971Z,2.93
2018-09-19T11:08:22.168Z,2.17
2018-09-19T11:10:50.377Z,2.57
2018-09-19T11:13:18.633Z,2.57
2018-09-19T11:15:46.880Z,2.80
2018-09-19T11:18:15.222Z,2.90
2018-09-19T11:20:43.438Z,2.57
2018-09-19T11:23:12.066Z,2.70
2018-09-19T11:25:40.344Z,2.50
2018-09-19T11:28:08.559Z,3.17
2018-09-19T11:30:36.795Z,3.80
2018-09-19T11:33:05.028Z,2.53
2018-09-19T11:35:33.228Z,2.87
2018-09-19T11:38:01.462Z,2.80
2018-09-19T11:40:29.683Z,2.20
2018-09-19T11:42:57.996Z,2.63
2018-09-19T11:45:26.240Z,2.80
2018-09-19T11:47:54.472Z,2.70
2018-09-19T11:50:22.692Z,2.40
2018-09-19T11:52:50.928Z,2.90
2018-09-19T11:55:19.146Z,2.90
2018-09-19T11:57:47.428Z,2.87
2018-09-19T12:00:15.671Z,2.80
2018-09-19T12:02:43.893Z,2.70
2018-09-19T12:05:12.128Z,2.50
2018-09-19T12:07:40.426Z,2.73
2018-09-19T12:10:08.670Z,2.60
2018-09-19T12:12:37.059Z,3.10
2018-09-19T12:15:05.367Z,2.40
2018-09-19T12:17:33.594Z,2.60
2018-09-19T12:20:01.914Z,2.37
2018-09-19T12:22:30.129Z,2.50
2018-09-19T12:24:58.424Z,2.43
2018-09-19T12:27:26.668Z,3.20
2018-09-19T12:29:55.176Z,2.97
2018-09-19T12:32:23.391Z,2.73
2018-09-19T12:34:51.663Z,2.43
2018-09-19T12:37:19.994Z,2.63
2018-09-19T12:39:48.223Z,2.83
2018-09-19T12:42:16.520Z,2.60
2018-09-19T12:44:44.744Z,3.07
2018-09-19T12:47:13.075Z,2.77
2018-09-19T12:49:41.424Z,2.97
2018-09-19T12:52:09.681Z,2.70
2018-09-19T12:54:37.895Z,2.60
2018-09-19T12:57:06.204Z,2.93
2018-09-19T12:59:34.432Z,3.10
2018-09-19T13:02:02.675Z,3.00
2018-09-19T13:04:30.908Z,3.30
2018-09-19T13:06:59.182Z,2.80
2018-09-19T13:09:27.417Z,2.93
2018-09-19T13:11:55.640Z,3.43
2018-09-19T13:14:23.898Z,2.63
2018-09-19T13:16:52.117Z,2.53
2018-09-19T13:19:20.440Z,2.70
2018-09-19T13:21:49.288Z,2.90
2018-09-19T13:24:17.487Z,2.83
2018-09-19T13:26:45.932Z,2.35
2018-09-19T13:29:14.196Z,2.80
2018-09-19T13:31:42.441Z,2.90
2018-09-19T13:34:10.664Z,2.70
2018-09-19T13:36:38.920Z,2.80
2018-09-19T13:39:08.660Z,2.80
2018-09-19T13:41:36.908Z,2.40
2018-09-19T13:44:05.128Z,2.83
2018-09-19T13:46:33.356Z,2.87
2018-09-19T13:49:04.937Z,3.02
2018-09-19T13:51:33.201Z,3.10
2018-09-19T13:54:01.430Z,2.85
2018-09-19T13:56:29.668Z,2.65
2018-09-19T13:58:57.972Z,2.70
2018-09-19T14:01:26.171Z,3.05
2018-09-19T14:03:54.435Z,2.80
2018-09-19T14:06:22.632Z,2.33
2018-09-19T14:08:50.837Z,2.58
2018-09-19T14:11:19.064Z,2.40
2018-09-19T14:13:47.300Z,2.55
2018-09-19T14:16:15.564Z,2.50
2018-09-19T14:18:43.811Z,3.00
2018-09-19T14:21:12.080Z,3.00
2018-09-19T14:23:40.335Z,2.85
2018-09-19T14:26:08.596Z,2.87
2018-09-19T14:28:36.832Z,2.52
2018-09-19T14:31:05.156Z,2.87
2018-09-19T14:33:33.364Z,2.75
2018-09-19T14:36:01.628Z,2.90
2018-09-19T14:38:29.876Z,3.10
2018-09-19T14:40:58.110Z,3.08
2018-09-19T14:43:26.349Z,3.12
2018-09-19T14:45:55.181Z,3.27
2018-09-19T14:48:23.425Z,3.42
2018-09-19T14:50:51.664Z,2.95
2018-09-19T14:53:19.923Z,2.90
2018-09-19T14:55:48.144Z,3.17
2018-09-19T14:58:16.413Z,2.72
2018-09-19T15:00:44.659Z,3.10
2018-09-19T15:03:12.902Z,3.12
2018-09-19T15:05:41.133Z,2.90
2018-09-19T15:08:09.485Z,3.08
2018-09-19T15:10:37.729Z,3.07
2018-09-19T15:13:06.279Z,2.80
2018-09-19T15:15:34.528Z,3.58
2018-09-19T15:18:02.741Z,3.55
2018-09-19T15:20:30.959Z,2.70
2018-09-19T15:22:59.160Z,3.20
2018-09-19T15:25:27.488Z,2.98
2018-09-19T15:27:55.764Z,2.70
2018-09-19T15:30:24.076Z,3.40
2018-09-19T15:32:52.341Z,3.37
2018-09-19T15:35:20.656Z,3.17
2018-09-19T15:37:48.858Z,3.27
2018-09-19T15:40:17.088Z,3.22
2018-09-19T15:42:45.312Z,2.80
2018-09-19T15:45:13.535Z,3.08
2018-09-19T15:47:41.808Z,3.07
2018-09-19T15:50:10.021Z,3.42
2018-09-19T15:52:38.234Z,3.37
2018-09-19T15:55:06.468Z,3.43
2018-09-19T15:57:34.664Z,3.47
2018-09-19T16:00:02.942Z,3.43
2018-09-19T16:02:31.184Z,3.30
2018-09-19T16:04:59.410Z,3.37
2018-09-19T16:07:27.630Z,3.08
2018-09-19T16:09:55.859Z,3.87
2018-09-19T16:12:24.048Z,3.10
2018-09-19T16:14:52.365Z,3.03
2018-09-19T16:17:21.084Z,3.13
2018-09-19T16:19:49.353Z,3.47
2018-09-19T16:22:17.574Z,3.00
2018-09-19T16:24:45.831Z,3.43
2018-09-19T16:27:14.079Z,3.50
2018-09-19T16:29:43.419Z,3.53
2018-09-19T16:32:11.660Z,5.70
2018-09-19T16:34:39.903Z,3.83
2018-09-19T16:37:08.136Z,4.17
2018-09-19T16:39:36.487Z,3.90
2018-09-19T16:42:04.823Z,3.80
2018-09-19T16:44:33.068Z,3.40
2018-09-19T16:47:01.320Z,3.17
2018-09-19T16:49:29.563Z,3.50
2018-09-19T16:51:57.827Z,3.53
2018-09-19T16:54:26.121Z,3.40
2018-09-19T16:56:54.307Z,3.37
2018-09-19T16:59:22.536Z,3.20
2018-09-19T17:01:50.723Z,3.40
2018-09-19T17:04:18.940Z,3.10
2018-09-19T17:06:47.296Z,3.10
2018-09-19T17:09:15.491Z,3.80
2018-09-19T17:11:43.729Z,3.87
2018-09-19T17:14:11.997Z,3.80
2018-09-19T17:16:40.200Z,3.77
2018-09-19T17:19:08.450Z,3.60
2018-09-19T17:21:36.645Z,3.93
2018-09-19T17:24:04.843Z,4.00
2018-09-19T17:26:33.091Z,3.70
2018-09-19T17:29:01.328Z,3.73
2018-09-19T17:31:29.588Z,3.53
2018-09-19T17:33:57.793Z,3.73
2018-09-19T17:36:26.004Z,3.80
2018-09-19T17:38:54.260Z,3.53
2018-09-19T17:41:22.491Z,3.53
2018-09-19T17:43:50.741Z,3.80
2018-09-19T17:46:19.004Z,3.77
2018-09-19T17:48:47.289Z,4.43
2018-09-19T17:51:15.496Z,4.50
2018-09-19T17:53:43.852Z,4.40
2018-09-19T17:56:12.271Z,3.80
2018-09-19T17:58:40.586Z,4.60
2018-09-19T18:01:08.784Z,5.27
2018-09-19T18:03:37.040Z,4.90
2018-09-19T18:06:05.354Z,4.30
2018-09-19T18:08:33.548Z,3.80
2018-09-19T18:11:01.772Z,4.37
2018-09-19T18:13:29.991Z,4.50
2018-09-19T18:15:58.252Z,4.57
2018-09-19T18:18:26.545Z,4.40
2018-09-19T18:20:54.756Z,3.63
2018-09-19T18:23:22.961Z,4.30
2018-09-19T18:25:51.180Z,4.73
2018-09-19T18:28:19.401Z,6.20
2018-09-19T18:30:47.728Z,5.00
2018-09-19T18:33:15.993Z,5.17
2018-09-19T18:35:44.242Z,5.37
2018-09-19T18:38:12.472Z,4.77
2018-09-19T18:40:40.856Z,4.70
2018-09-19T18:43:09.182Z,4.87
2018-09-19T18:45:37.392Z,4.50
2018-09-19T18:48:05.663Z,4.30
2018-09-19T18:50:33.948Z,5.30
2018-09-19T18:53:02.170Z,4.30
2018-09-19T18:55:30.424Z,4.40
2018-09-19T18:57:58.674Z,4.80
2018-09-19T19:00:26.872Z,4.30
2018-09-19T19:02:55.088Z,3.90
2018-09-19T19:05:23.280Z,4.50
2018-09-19T19:07:51.575Z,4.40
2018-09-19T19:10:19.748Z,4.07
2018-09-19T19:12:48.806Z,4.60
2018-09-19T19:15:17.104Z,4.93
2018-09-19T19:17:45.340Z,4.80
2018-09-19T19:20:13.540Z,5.63
2018-09-19T19:22:41.782Z,5.37
2018-09-19T19:25:10.000Z,5.27
2018-09-19T19:27:38.239Z,4.90
2018-09-19T19:30:07.188Z,4.30
2018-09-19T19:32:35.352Z,5.03
2018-09-19T19:35:03.569Z,4.80
2018-09-19T19:37:32.977Z,4.73
2018-09-19T19:40:01.164Z,5.37
2018-09-19T19:42:29.503Z,5.00
2018-09-19T19:44:57.724Z,5.70
2018-09-19T19:47:25.930Z,4.60
2018-09-19T19:49:54.188Z,4.77
2018-09-19T19:52:22.461Z,4.40
2018-09-19T19:54:50.760Z,4.20
2018-09-19T19:57:18.964Z,4.50
2018-09-19T19:59:47.241Z,4.60
2018-09-19T20:02:15.468Z,4.20
2018-09-19T20:04:43.696Z,4.60
2018-09-19T20:07:12.009Z,4.87
2018-09-19T20:09:40.596Z,5.10
2018-09-19T20:12:08.856Z,5.77
2018-09-19T20:14:37.297Z,5.07
2018-09-19T20:17:05.787Z,4.80
2018-09-19T20:19:34.062Z,4.70
2018-09-19T20:22:02.853Z,5.57
2018-09-19T20:24:31.099Z,5.53
2018-09-19T20:26:59.571Z,5.17
2018-09-19T20:29:27.808Z,5.07
2018-09-19T20:31:56.020Z,5.47
2018-09-19T20:34:24.232Z,5.00
2018-09-19T20:36:52.473Z,5.60
2018-09-19T20:39:20.778Z,4.70
2018-09-19T20:41:49.015Z,5.23
2018-09-19T20:44:17.326Z,5.20
2018-09-19T20:46:45.631Z,5.20
2018-09-19T20:49:13.811Z,5.43
2018-09-19T20:51:42.044Z,5.37
2018-09-19T20:54:10.281Z,5.50
2018-09-19T20:56:38.512Z,5.53
2018-09-19T20:59:06.716Z,5.40
2018-09-19T21:01:34.960Z,5.70
2018-09-19T21:04:03.263Z,5.73
2018-09-19T21:06:31.509Z,6.07
2018-09-19T21:08:59.976Z,6.00
2018-09-19T21:11:28.171Z,6.43
2018-09-19T21:13:56.388Z,5.63
2018-09-19T21:16:24.581Z,5.43
2018-09-19T21:18:52.808Z,5.80
2018-09-19T21:21:21.016Z,5.63
2018-09-19T21:23:49.224Z,5.43
2018-09-19T21:26:17.427Z,6.03
2018-09-19T21:28:45.664Z,6.50
2018-09-19T21:31:13.872Z,6.43
2018-09-19T21:33:42.272Z,6.60
2018-09-19T21:36:10.475Z,7.13
2018-09-19T21:38:38.715Z,6.97
2018-09-19T21:41:07.021Z,5.83
2018-09-19T21:43:35.216Z,6.60
2018-09-19T21:46:03.752Z,6.63
2018-09-19T21:48:32.009Z,6.13
2018-09-19T21:51:00.177Z,6.63
2018-09-19T21:53:28.441Z,5.77
2018-09-19T21:55:56.645Z,6.53
2018-09-19T21:58:24.869Z,7.73
2018-09-19T22:00:58.660Z,6.93
2018-09-19T22:03:26.858Z,6.80
2018-09-19T22:05:55.128Z,6.20
2018-09-19T22:08:23.436Z,7.00
2018-09-19T22:10:51.688Z,6.50
2018-09-19T22:13:19.884Z,6.87
2018-09-19T22:15:48.104Z,6.70
2018-09-19T22:18:16.505Z,6.83
2018-09-19T22:20:44.832Z,6.67
2018-09-19T22:23:13.062Z,6.97
2018-09-19T22:25:41.288Z,6.77
2018-09-19T22:28:09.495Z,6.70
2018-09-19T22:30:37.695Z,7.43
2018-09-19T22:33:05.933Z,7.43
2018-09-19T22:35:34.148Z,6.77
2018-09-19T22:38:02.376Z,7.97
2018-09-19T22:40:30.586Z,6.80
2018-09-19T22:42:58.812Z,7.60
2018-09-19T22:45:27.016Z,7.80
2018-09-19T22:47:55.211Z,14.80
2018-09-19T22:50:23.793Z,9.37
2018-09-19T22:52:52.261Z,8.90
2018-09-19T22:55:20.460Z,8.77
2018-09-19T22:57:48.704Z,8.57
2018-09-19T23:00:17.120Z,8.40
2018-09-19T23:02:45.321Z,8.10
2018-09-19T23:05:13.528Z,7.33
2018-09-19T23:07:41.760Z,7.67
2018-09-19T23:10:09.972Z,8.77
2018-09-19T23:12:38.188Z,8.30
2018-09-19T23:15:06.399Z,8.53
2018-09-19T23:17:34.592Z,8.70
2018-09-19T23:20:02.820Z,7.80
2018-09-19T23:22:31.624Z,7.30
2018-09-19T23:24:59.916Z,7.60
2018-09-19T23:27:28.139Z,7.60
2018-09-19T23:29:56.356Z,7.57
2018-09-19T23:32:24.556Z,8.13
2018-09-19T23:34:52.820Z,8.53
2018-09-19T23:37:21.052Z,8.50
2018-09-19T23:39:49.268Z,8.17
2018-09-19T23:42:17.472Z,8.13
2018-09-19T23:44:45.700Z,7.83
2018-09-19T23:47:13.988Z,8.43
2018-09-19T23:49:42.169Z,8.47
2018-09-19T23:52:10.399Z,7.70
2018-09-19T23:54:38.585Z,7.67
2018-09-19T23:57:07.053Z,7.83
2018-09-19T23:59:41.873Z,9.33
